Time;durP1;ratioP1;P1;durP2;ratioP2;P2;SDS_P1;SDS_P2;PMS_P1;PMS_P2;Temp;Humidity;BMP_temperature;BMP_pressure;BME280_temperature;BME280_humidity;BME280_pressure;Samples;Min_cycle;Max_cycle;Signal;HPM_P1;HPM_P2
2022/08/06 00:00:38;;;;;;;4.82;0.70;;;;;;;;;;10223360;28;20045;-69
2022/08/06 00:05:40;;;;;;;3.27;0.80;;;;;;;;;;10214982;28;20061;-68
2022/08/06 00:10:41;;;;;;;5.05;1.17;;;;;;;;;;10217541;28;20099;-68
2022/08/06 00:15:43;;;;;;;6.55;1.08;;;;;;;;;;10213217;28;20052;-69
2022/08/06 00:20:59;;;;;;;3.22;0.70;;;;;;;;;;10229477;28;20072;-68
2022/08/06 00:25:55;;;;;;;3.08;0.50;;;;;;;;;;10217209;28;20088;-68
2022/08/06 00:30:52;;;;;;;5.25;0.70;;;;;;;;;;10228035;28;20045;-68
2022/08/06 00:35:48;;;;;;;4.70;1.13;;;;;;;;;;10210600;28;20132;-68
2022/08/06 00:40:44;;;;;;;3.95;0.63;;;;;;;;;;10214235;28;20164;-68
2022/08/06 00:45:53;;;;;;;3.60;0.50;;;;;;;;;;10224424;28;20464;-68
2022/08/06 00:50:50;;;;;;;2.15;0.65;;;;;;;;;;10217275;28;20394;-69
2022/08/06 00:55:47;;;;;;;2.33;0.52;;;;;;;;;;10220977;28;20107;-68
2022/08/06 01:00:56;;;;;;;5.28;1.08;;;;;;;;;;10212101;28;20063;-68
2022/08/06 01:05:55;;;;;;;3.97;0.60;;;;;;;;;;10208647;28;20077;-68
2022/08/06 01:11:12;;;;;;;6.40;0.80;;;;;;;;;;10181611;28;20497;-68
2022/08/06 01:16:11;;;;;;;4.72;0.70;;;;;;;;;;10216782;28;20203;-68
2022/08/06 01:21:17;;;;;;;5.30;1.15;;;;;;;;;;10210230;28;20164;-68
2022/08/06 01:26:36;;;;;;;6.68;1.13;;;;;;;;;;10230049;28;20138;-69
2022/08/06 01:31:44;;;;;;;5.47;0.60;;;;;;;;;;10226259;28;20088;-68
2022/08/06 01:36:43;;;;;;;3.90;1.02;;;;;;;;;;10216638;28;20136;-68
2022/08/06 01:41:43;;;;;;;;;;;;;;;;;;10224381;28;20556;-68
2022/08/06 01:46:55;;;;;;;1.98;0.70;;;;;;;;;;10208576;28;19928;-69
2022/08/06 01:51:53;;;;;;;2.38;0.52;;;;;;;;;;10220657;28;20804;-68
2022/08/06 01:57:10;;;;;;;3.20;0.82;;;;;;;;;;10211943;28;20057;-68
2022/08/06 02:02:28;;;;;;;3.03;0.60;;;;;;;;;;10215006;28;20045;-68
2022/08/06 02:07:27;;;;;;;2.97;0.68;;;;;;;;;;10215369;28;20049;-68
2022/08/06 02:12:46;;;;;;;4.05;0.85;;;;;;;;;;10220588;28;20050;-68
2022/08/06 02:17:47;;;;;;;1.83;0.70;;;;;;;;;;10214298;28;20045;-68
2022/08/06 02:23:03;;;;;;;3.33;1.00;;;;;;;;;;10219672;28;20046;-67
2022/08/06 02:28:00;;;;;;;4.45;0.68;;;;;;;;;;10225539;28;20053;-68
2022/08/06 02:32:56;;;;;;;5.88;1.13;;;;;;;;;;10224092;28;20073;-68
2022/08/06 02:38:01;;;;;;;5.22;0.70;;;;;;;;;;10227480;28;20073;-68
2022/08/06 02:43:05;;;;;;;3.95;0.82;;;;;;;;;;10227454;28;20751;-68
2022/08/06 02:48:06;;;;;;;4.20;0.70;;;;;;;;;;10222191;28;20632;-68
2022/08/06 02:53:09;;;;;;;2.05;0.55;;;;;;;;;;10230001;28;20421;-68
2022/08/06 02:58:27;;;;;;;3.78;0.77;;;;;;;;;;10219746;28;20042;-69
2022/08/06 03:03:33;;;;;;;3.10;0.75;;;;;;;;;;10208444;28;20050;-69
2022/08/06 03:08:32;;;;;;;4.60;0.80;;;;;;;;;;10227385;28;20068;-69
2022/08/06 03:13:31;;;;;;;4.13;0.80;;;;;;;;;;10225600;28;20502;-69
2022/08/06 03:18:32;;;;;;;4.88;0.88;;;;;;;;;;10230820;28;20045;-70
2022/08/06 03:23:29;;;;;;;5.60;1.48;;;;;;;;;;10220797;28;20053;-69
2022/08/06 03:28:29;;;;;;;1.58;0.52;;;;;;;;;;10229007;28;20041;-69
2022/08/06 03:33:26;;;;;;;7.97;1.13;;;;;;;;;;10225436;28;20452;-69
2022/08/06 03:38:38;;;;;;;2.28;0.85;;;;;;;;;;10222175;28;20037;-69
2022/08/06 03:43:35;;;;;;;4.18;0.68;;;;;;;;;;10227534;28;20061;-69
2022/08/06 03:48:52;;;;;;;3.15;0.70;;;;;;;;;;10225446;28;20091;-69
2022/08/06 03:53:49;;;;;;;2.45;0.70;;;;;;;;;;10219879;28;20061;-69
2022/08/06 03:58:47;;;;;;;3.60;0.82;;;;;;;;;;10225952;28;20096;-69
2022/08/06 04:03:44;;;;;;;3.03;0.77;;;;;;;;;;10219726;28;20080;-69
2022/08/06 04:08:40;;;;;;;2.67;0.90;;;;;;;;;;10227073;28;20077;-69
2022/08/06 04:13:39;;;;;;;3.85;0.90;;;;;;;;;;10220455;28;20042;-69
2022/08/06 04:18:56;;;;;;;1.92;0.60;;;;;;;;;;10224083;28;20124;-69
2022/08/06 04:23:54;;;;;;;4.13;0.95;;;;;;;;;;10223570;28;20497;-69
2022/08/06 04:28:52;;;;;;;2.63;1.00;;;;;;;;;;10225433;28;20760;-69
2022/08/06 04:33:54;;;;;;;2.28;0.77;;;;;;;;;;10228424;28;20450;-69
2022/08/06 04:38:52;;;;;;;3.20;0.98;;;;;;;;;;10221230;28;20041;-70
2022/08/06 04:43:49;;;;;;;12.43;2.25;;;;;;;;;;10215636;28;20042;-69
2022/08/06 04:48:50;;;;;;;3.25;0.85;;;;;;;;;;10224368;28;20120;-69
2022/08/06 04:53:52;;;;;;;2.55;1.00;;;;;;;;;;10213890;28;20493;-69
2022/08/06 04:58:53;;;;;;;4.28;1.00;;;;;;;;;;10216602;28;20048;-69
2022/08/06 05:03:49;;;;;;;4.95;1.73;;;;;;;;;;10213113;28;20563;-70
2022/08/06 05:09:06;;;;;;;5.28;1.58;;;;;;;;;;10225844;28;20045;-69
2022/08/06 05:14:39;;;;;;;3.30;1.20;;;;;;;;;;10221752;28;20046;-69
2022/08/06 05:19:42;;;;;;;5.30;1.23;;;;;;;;;;10216545;28;20065;-69
2022/08/06 05:24:40;;;;;;;7.90;2.28;;;;;;;;;;10211636;28;20045;-69
2022/08/06 05:29:56;;;;;;;2.72;1.02;;;;;;;;;;10213517;28;20088;-69
2022/08/06 05:34:52;;;;;;;5.47;0.95;;;;;;;;;;10223279;28;20076;-69
2022/08/06 05:39:49;;;;;;;2.90;0.77;;;;;;;;;;10233178;28;20084;-67
2022/08/06 05:44:54;;;;;;;5.38;0.80;;;;;;;;;;10226179;28;20133;-69
2022/08/06 05:49:55;;;;;;;5.55;1.58;;;;;;;;;;10217257;28;20084;-69
2022/08/06 05:55:08;;;;;;;5.88;0.65;;;;;;;;;;10215351;28;20042;-69
2022/08/06 06:00:10;;;;;;;3.40;0.82;;;;;;;;;;10209112;28;20108;-69
2022/08/06 06:05:26;;;;;;;2.83;0.63;;;;;;;;;;10215219;28;20163;-68
2022/08/06 06:10:45;;;;;;;4.88;1.40;;;;;;;;;;10218412;28;20130;-67
2022/08/06 06:16:03;;;;;;;4.63;1.73;;;;;;;;;;10231196;28;20527;-67
2022/08/06 06:21:13;;;;;;;3.05;0.70;;;;;;;;;;10219555;28;20038;-68
2022/08/06 06:26:44;;;;;;;2.03;0.73;;;;;;;;;;10222874;28;20050;-68
2022/08/06 06:32:01;;;;;;;2.88;1.00;;;;;;;;;;10225071;28;20054;-68
2022/08/06 06:37:05;;;;;;;3.22;0.90;;;;;;;;;;10227213;28;20075;-68
2022/08/06 06:42:05;;;;;;;6.18;2.05;;;;;;;;;;10230615;28;20061;-68
2022/08/06 06:47:14;;;;;;;4.53;1.75;;;;;;;;;;10217230;28;20121;-68
2022/08/06 06:52:24;;;;;;;3.30;1.40;;;;;;;;;;10219303;28;20041;-68
2022/08/06 06:57:31;;;;;;;2.90;0.80;;;;;;;;;;10218863;28;20497;-68
2022/08/06 07:02:41;;;;;;;3.25;0.70;;;;;;;;;;10224071;28;20045;-68
2022/08/06 07:07:41;;;;;;;2.67;0.57;;;;;;;;;;10218797;28;20045;-68
2022/08/06 07:12:45;;;;;;;3.38;0.77;;;;;;;;;;10231199;28;20049;-69
2022/08/06 07:17:47;;;;;;;3.60;0.70;;;;;;;;;;10218416;28;20068;-68
2022/08/06 07:23:06;;;;;;;2.00;0.73;;;;;;;;;;10225227;28;20464;-67
2022/08/06 07:28:25;;;;;;;2.00;0.60;;;;;;;;;;10225451;28;20136;-68
2022/08/06 07:33:24;;;;;;;4.63;1.23;;;;;;;;;;10224457;28;20046;-68
2022/08/06 07:38:21;;;;;;;3.60;1.52;;;;;;;;;;10219142;28;20042;-68
2022/08/06 07:43:19;;;;;;;3.38;1.00;;;;;;;;;;10226739;28;20145;-68
2022/08/06 07:48:23;;;;;;;3.50;0.95;;;;;;;;;;10224053;28;20046;-68
2022/08/06 07:53:21;;;;;;;2.25;0.73;;;;;;;;;;10215295;28;20038;-68
2022/08/06 07:58:36;;;;;;;13.68;2.97;;;;;;;;;;10216379;28;20069;-68
2022/08/06 08:09:01;;;;;;;5.72;1.98;;;;;;;;;;10222667;28;20145;-67
2022/08/06 08:13:58;;;;;;;4.65;1.00;;;;;;;;;;10223100;28;20124;-67
2022/08/06 08:18:59;;;;;;;3.65;0.65;;;;;;;;;;10221179;28;20034;-67
2022/08/06 08:24:04;;;;;;;2.42;0.95;;;;;;;;;;10219420;28;20148;-68
2022/08/06 08:29:01;;;;;;;3.38;0.95;;;;;;;;;;10226884;28;20045;-67
2022/08/06 08:33:57;;;;;;;2.83;1.20;;;;;;;;;;10221239;28;20688;-67
2022/08/06 08:38:57;;;;;;;3.17;0.80;;;;;;;;;;10222650;28;20559;-67
2022/08/06 08:43:56;;;;;;;2.33;0.60;;;;;;;;;;10220891;28;20567;-67
2022/08/06 08:48:57;;;;;;;3.42;1.15;;;;;;;;;;10222000;28;20045;-67
2022/08/06 08:53:55;;;;;;;5.68;0.90;;;;;;;;;;10223979;28;20472;-67
2022/08/06 08:58:53;;;;;;;1.67;0.90;;;;;;;;;;10219199;28;20065;-67
2022/08/06 09:04:10;;;;;;;3.63;1.10;;;;;;;;;;10210688;28;20091;-67
2022/08/06 09:09:09;;;;;;;4.68;1.10;;;;;;;;;;10209206;28;20052;-67
2022/08/06 09:14:11;;;;;;;3.38;0.80;;;;;;;;;;10216743;28;20052;-67
2022/08/06 09:19:11;;;;;;;4.15;1.20;;;;;;;;;;10215902;28;20132;-67
2022/08/06 09:24:09;;;;;;;2.03;1.17;;;;;;;;;;10209737;28;20057;-67
2022/08/06 09:29:20;;;;;;;5.80;2.08;;;;;;;;;;10223402;28;20119;-67
2022/08/06 09:34:36;;;;;;;4.65;1.20;;;;;;;;;;10220557;28;20099;-67
2022/08/06 09:39:40;;;;;;;5.53;1.65;;;;;;;;;;10222736;28;20493;-67
2022/08/06 09:45:10;;;;;;;2.92;1.30;;;;;;;;;;10207840;28;20420;-67
2022/08/06 09:50:13;;;;;;;4.47;1.30;;;;;;;;;;10210664;28;20056;-68
2022/08/06 09:55:28;;;;;;;4.20;1.55;;;;;;;;;;10217297;28;20096;-67
2022/08/06 10:00:30;;;;;;;4.07;1.25;;;;;;;;;;10225124;28;20112;-69
2022/08/06 10:05:28;;;;;;;3.15;1.15;;;;;;;;;;10215940;28;20042;-68
2022/08/06 10:10:44;;;;;;;6.18;1.33;;;;;;;;;;10212847;28;20042;-68
2022/08/06 10:15:45;;;;;;;4.70;1.60;;;;;;;;;;10217724;28;20525;-67
2022/08/06 10:21:00;;;;;;;4.95;1.30;;;;;;;;;;10213466;28;20413;-67
2022/08/06 10:26:04;;;;;;;4.90;1.73;;;;;;;;;;10223397;28;20132;-68
2022/08/06 10:31:04;;;;;;;4.03;1.70;;;;;;;;;;10222814;28;20498;-68
2022/08/06 10:36:06;;;;;;;15.07;3.00;;;;;;;;;;10229568;28;20045;-67
2022/08/06 10:41:08;;;;;;;6.25;2.13;;;;;;;;;;10210388;28;20694;-67
2022/08/06 10:46:24;;;;;;;9.75;3.15;;;;;;;;;;10206228;28;20048;-67
2022/08/06 10:51:21;;;;;;;5.03;2.25;;;;;;;;;;10216132;28;20053;-67
2022/08/06 10:56:38;;;;;;;4.15;2.25;;;;;;;;;;10221208;28;20091;-67
2022/08/06 11:01:45;;;;;;;7.13;3.15;;;;;;;;;;10220627;28;20132;-66
2022/08/06 11:06:42;;;;;;;7.35;3.17;;;;;;;;;;10227424;28;20415;-67
2022/08/06 11:11:54;;;;;;;4.60;3.20;;;;;;;;;;10228850;28;20807;-67
2022/08/06 11:17:03;;;;;;;5.80;3.20;;;;;;;;;;10220270;28;20068;-68
2022/08/06 11:22:06;;;;;;;6.82;3.80;;;;;;;;;;10223550;28;20677;-67
2022/08/06 11:27:27;;;;;;;10.32;4.88;;;;;;;;;;10221448;28;20129;-67
2022/08/06 11:32:48;;;;;;;7.07;4.50;;;;;;;;;;10213043;28;20048;-67
2022/08/06 11:37:46;;;;;;;6.22;4.20;;;;;;;;;;10220995;28;20598;-67
2022/08/06 11:42:58;;;;;;;6.25;4.00;;;;;;;;;;10213353;28;20100;-67
2022/08/06 11:48:07;;;;;;;8.43;4.40;;;;;;;;;;10225505;28;20041;-68
2022/08/06 11:53:38;;;;;;;8.05;4.68;;;;;;;;;;10231992;28;20054;-67
2022/08/06 11:58:48;;;;;;;7.65;3.95;;;;;;;;;;10227481;28;20476;-67
2022/08/06 12:03:45;;;;;;;4.78;4.20;;;;;;;;;;10213333;28;20100;-67
2022/08/06 12:08:41;;;;;;;5.55;3.53;;;;;;;;;;10224295;28;20045;-68
2022/08/06 12:13:42;;;;;;;6.40;3.80;;;;;;;;;;10214101;28;20135;-67
2022/08/06 12:18:59;;;;;;;11.60;4.13;;;;;;;;;;10220597;28;20076;-67
2022/08/06 12:23:55;;;;;;;10.02;4.60;;;;;;;;;;10221045;28;20069;-67
2022/08/06 12:28:52;;;;;;;4.80;3.33;;;;;;;;;;10222203;28;20072;-68
2022/08/06 12:33:48;;;;;;;4.63;3.20;;;;;;;;;;10219591;28;20137;-67
2022/08/06 12:38:53;;;;;;;4.00;3.22;;;;;;;;;;10213380;28;20510;-67
2022/08/06 12:43:53;;;;;;;6.00;3.42;;;;;;;;;;10217302;28;20129;-67
2022/08/06 12:48:52;;;;;;;7.05;3.92;;;;;;;;;;10226768;28;20064;-67
2022/08/06 12:53:57;;;;;;;8.02;4.13;;;;;;;;;;10212070;28;20399;-67
2022/08/06 12:58:55;;;;;;;7.43;4.53;;;;;;;;;;10216976;28;20144;-67
2022/08/06 13:03:53;;;;;;;7.63;4.10;;;;;;;;;;10221939;28;20076;-67
2022/08/06 13:09:00;;;;;;;6.15;4.28;;;;;;;;;;10220424;28;20041;-67
2022/08/06 13:13:58;;;;;;;5.70;4.40;;;;;;;;;;10224624;28;20116;-67
2022/08/06 13:19:17;;;;;;;6.72;4.20;;;;;;;;;;10233439;28;20045;-67
2022/08/06 13:24:24;;;;;;;6.80;4.15;;;;;;;;;;10220089;28;20457;-67
2022/08/06 13:29:28;;;;;;;4.45;3.83;;;;;;;;;;10202479;28;20127;-68
2022/08/06 13:34:49;;;;;;;5.50;3.95;;;;;;;;;;10220615;28;20154;-68
2022/08/06 13:39:49;;;;;;;5.50;4.90;;;;;;;;;;10214898;28;20073;-68
2022/08/06 13:44:45;;;;;;;7.13;5.00;;;;;;;;;;10217373;28;20069;-69
2022/08/06 13:49:42;;;;;;;5.93;4.55;;;;;;;;;;10211291;28;20694;-68
2022/08/06 13:54:56;;;;;;;7.82;4.82;;;;;;;;;;10219729;28;20408;-68
2022/08/06 13:59:52;;;;;;;5.95;4.50;;;;;;;;;;10221551;28;20456;-68
2022/08/06 14:04:51;;;;;;;9.05;5.47;;;;;;;;;;10213865;28;20087;-68
2022/08/06 14:09:47;;;;;;;5.53;4.13;;;;;;;;;;10202826;28;20054;-70
2022/08/06 14:15:04;;;;;;;5.22;4.57;;;;;;;;;;10209253;28;20054;-68
2022/08/06 14:20:03;;;;;;;6.70;5.00;;;;;;;;;;10210890;28;20045;-68
2022/08/06 14:25:06;;;;;;;6.00;4.80;;;;;;;;;;10211150;28;20057;-68
2022/08/06 14:30:02;;;;;;;6.15;5.28;;;;;;;;;;10228675;28;20762;-68
2022/08/06 14:35:19;;;;;;;7.80;5.40;;;;;;;;;;10212288;28;20054;-69
2022/08/06 14:40:15;;;;;;;11.05;6.18;;;;;;;;;;10214551;28;20065;-68
2022/08/06 14:45:28;;;;;;;9.63;6.55;;;;;;;;;;10224208;28;20100;-68
2022/08/06 14:50:34;;;;;;;6.95;6.10;;;;;;;;;;10217852;28;20493;-68
2022/08/06 14:55:37;;;;;;;10.50;5.80;;;;;;;;;;10225570;28;20152;-68
2022/08/06 15:00:37;;;;;;;12.30;6.53;;;;;;;;;;10220348;28;20048;-68
2022/08/06 15:05:34;;;;;;;10.07;6.43;;;;;;;;;;10218498;28;20409;-68
2022/08/06 15:10:50;;;;;;;7.65;5.80;;;;;;;;;;10177827;28;20092;-68
2022/08/06 15:15:47;;;;;;;6.65;5.70;;;;;;;;;;10191365;28;20050;-68
2022/08/06 15:20:45;;;;;;;9.45;6.32;;;;;;;;;;10191795;28;20056;-68
2022/08/06 15:25:43;;;;;;;7.45;5.95;;;;;;;;;;10184077;28;20042;-67
2022/08/06 15:31:01;;;;;;;8.10;6.32;;;;;;;;;;10186271;28;20077;-68
2022/08/06 15:36:00;;;;;;;8.23;5.80;;;;;;;;;;10195648;28;20144;-67
2022/08/06 15:40:57;;;;;;;7.35;5.65;;;;;;;;;;10219001;28;20092;-67
2022/08/06 15:45:58;;;;;;;6.05;5.03;;;;;;;;;;10209117;28;20053;-67
2022/08/06 15:50:57;;;;;;;6.50;5.55;;;;;;;;;;10220054;28;20099;-68
2022/08/06 15:56:13;;;;;;;7.45;5.80;;;;;;;;;;10218126;28;20053;-67
2022/08/06 16:01:13;;;;;;;8.43;5.80;;;;;;;;;;10212106;28;20053;-67
2022/08/06 16:06:22;;;;;;;7.85;5.68;;;;;;;;;;10213363;28;20058;-67
2022/08/06 16:11:21;;;;;;;6.00;5.30;;;;;;;;;;10228126;28;20052;-67
2022/08/06 16:16:18;;;;;;;9.77;5.07;;;;;;;;;;10225399;28;20056;-67
2022/08/06 16:21:16;;;;;;;6.07;4.88;;;;;;;;;;10224963;28;20103;-68
2022/08/06 16:26:15;;;;;;;7.43;5.40;;;;;;;;;;10214009;28;20533;-68
2022/08/06 16:31:32;;;;;;;7.30;5.63;;;;;;;;;;10220978;28;20099;-67
2022/08/06 16:36:43;;;;;;;9.82;5.28;;;;;;;;;;10216258;28;20060;-67
2022/08/06 16:41:40;;;;;;;5.30;4.80;;;;;;;;;;10217314;28;20041;-68
2022/08/06 16:46:56;;;;;;;7.90;5.95;;;;;;;;;;10213656;28;20523;-68
2022/08/06 16:51:53;;;;;;;7.85;5.40;;;;;;;;;;10212689;28;20050;-68
2022/08/06 16:57:09;;;;;;;7.13;5.25;;;;;;;;;;10211824;28;20050;-67
2022/08/06 17:07:22;;;;;;;7.75;6.18;;;;;;;;;;10213144;28;20060;-67
2022/08/06 17:12:37;;;;;;;6.13;5.50;;;;;;;;;;10210099;28;20041;-68
2022/08/06 17:17:34;;;;;;;8.82;5.40;;;;;;;;;;10203350;28;20136;-68
2022/08/06 17:22:33;;;;;;;8.65;5.60;;;;;;;;;;10211846;28;20509;-67
2022/08/06 17:27:29;;;;;;;6.25;5.25;;;;;;;;;;10215036;28;20068;-67
2022/08/06 17:32:51;;;;;;;7.72;6.05;;;;;;;;;;10206619;28;20053;-68
2022/08/06 17:37:50;;;;;;;10.35;6.65;;;;;;;;;;10202324;28;20524;-68
2022/08/06 17:42:46;;;;;;;7.60;6.22;;;;;;;;;;10209375;28;20045;-68
2022/08/06 17:47:44;;;;;;;7.03;6.13;;;;;;;;;;10209719;28;20120;-68
2022/08/06 17:52:47;;;;;;;8.82;6.95;;;;;;;;;;10213174;28;20132;-68
2022/08/06 17:57:45;;;;;;;8.27;6.28;;;;;;;;;;10209409;28;20457;-68
2022/08/06 18:03:02;;;;;;;8.35;5.78;;;;;;;;;;10215292;28;20084;-68
2022/08/06 18:07:58;;;;;;;7.22;4.97;;;;;;;;;;10210927;28;20042;-67
2022/08/06 18:13:11;;;;;;;7.18;5.55;;;;;;;;;;10209293;28;20042;-67
2022/08/06 18:18:07;;;;;;;10.30;6.75;;;;;;;;;;10215879;28;20053;-68
2022/08/06 18:23:05;;;;;;;7.72;5.85;;;;;;;;;;10216784;28;20091;-68
2022/08/06 18:28:16;;;;;;;9.75;5.82;;;;;;;;;;10211808;28;20055;-68
2022/08/06 18:33:32;;;;;;;10.63;7.28;;;;;;;;;;10211562;28;20490;-68
2022/08/06 18:38:28;;;;;;;7.47;5.65;;;;;;;;;;10213484;28;20225;-67
2022/08/06 18:43:27;;;;;;;7.57;5.70;;;;;;;;;;10209551;28;20142;-68
2022/08/06 18:48:44;;;;;;;10.38;6.75;;;;;;;;;;10200161;28;20080;-67
2022/08/06 18:53:42;;;;;;;13.10;7.53;;;;;;;;;;10210148;28;20045;-67
2022/08/06 18:58:59;;;;;;;9.18;6.10;;;;;;;;;;10184161;28;20450;-68
2022/08/06 19:03:55;;;;;;;8.00;5.53;;;;;;;;;;10205744;28;20273;-68
2022/08/06 19:08:52;;;;;;;8.52;5.47;;;;;;;;;;10212926;28;20559;-68
2022/08/06 19:13:50;;;;;;;9.65;6.25;;;;;;;;;;10224078;28;20476;-68
2022/08/06 19:19:07;;;;;;;9.90;6.63;;;;;;;;;;10218349;28;20059;-68
2022/08/06 19:24:03;;;;;;;8.38;5.90;;;;;;;;;;10216053;28;20132;-67
2022/08/06 19:29:19;;;;;;;8.68;5.40;;;;;;;;;;10224740;28;20055;-68
2022/08/06 19:34:36;;;;;;;6.22;5.38;;;;;;;;;;10215470;28;20045;-68
2022/08/06 19:39:33;;;;;;;6.00;4.45;;;;;;;;;;10220503;28;20579;-68
2022/08/06 19:44:49;;;;;;;8.88;5.45;;;;;;;;;;10224227;28;20053;-68
2022/08/06 19:50:06;;;;;;;8.10;5.38;;;;;;;;;;10220935;28;20066;-68
2022/08/06 19:55:07;;;;;;;9.48;5.18;;;;;;;;;;10224336;28;20462;-68
2022/08/06 20:00:24;;;;;;;7.85;5.57;;;;;;;;;;10222998;28;20052;-68
2022/08/06 20:05:40;;;;;;;8.68;6.05;;;;;;;;;;10215838;28;20124;-68
2022/08/06 20:11:00;;;;;;;7.13;5.60;;;;;;;;;;10208200;28;20653;-67
2022/08/06 20:15:57;;;;;;;11.73;7.13;;;;;;;;;;10222271;28;20148;-68
2022/08/06 20:20:57;;;;;;;7.63;5.20;;;;;;;;;;10218927;28;20056;-68
2022/08/06 20:25:56;;;;;;;6.93;4.68;;;;;;;;;;10225815;28;20049;-68
2022/08/06 20:31:12;;;;;;;6.47;4.85;;;;;;;;;;10220437;28;20049;-68
2022/08/06 20:36:10;;;;;;;11.27;6.18;;;;;;;;;;10210972;28;20092;-68
2022/08/06 20:41:08;;;;;;;11.68;6.95;;;;;;;;;;10218122;28;20080;-68
2022/08/06 20:46:24;;;;;;;11.43;6.93;;;;;;;;;;10216838;28;20416;-68
2022/08/06 20:51:41;;;;;;;10.05;6.70;;;;;;;;;;10227983;28;20129;-68
2022/08/06 20:56:37;;;;;;;9.93;6.53;;;;;;;;;;10215860;28;20076;-68
2022/08/06 21:01:38;;;;;;;11.57;5.68;;;;;;;;;;10200582;28;20061;-68
2022/08/06 21:06:35;;;;;;;8.88;5.07;;;;;;;;;;10211298;28;20504;-68
2022/08/06 21:11:32;;;;;;;6.43;4.47;;;;;;;;;;10218005;28;20038;-67
2022/08/06 21:16:30;;;;;;;10.68;4.82;;;;;;;;;;10217645;28;20132;-68
2022/08/06 21:21:30;;;;;;;8.25;5.25;;;;;;;;;;10212388;28;20100;-68
2022/08/06 21:26:27;;;;;;;7.72;5.07;;;;;;;;;;10205952;28;20069;-67
2022/08/06 21:31:30;;;;;;;9.00;5.43;;;;;;;;;;10192772;28;20045;-68
2022/08/06 21:36:27;;;;;;;7.32;5.03;;;;;;;;;;10216989;28;20068;-69
2022/08/06 21:41:28;;;;;;;9.57;6.25;;;;;;;;;;10211134;28;20065;-68
2022/08/06 21:46:45;;;;;;;11.85;6.93;;;;;;;;;;10196700;28;20141;-69
2022/08/06 21:51:53;;;;;;;11.23;5.43;;;;;;;;;;10193079;28;20104;-69
2022/08/06 21:56:50;;;;;;;8.85;4.60;;;;;;;;;;10191917;28;20128;-68
2022/08/06 22:01:48;;;;;;;9.50;4.55;;;;;;;;;;10225790;28;20050;-68
2022/08/06 22:07:05;;;;;;;8.93;4.78;;;;;;;;;;10225016;28;20058;-68
2022/08/06 22:12:02;;;;;;;12.15;5.50;;;;;;;;;;10216787;28;20052;-68
2022/08/06 22:17:18;;;;;;;6.80;4.65;;;;;;;;;;10221546;28;20584;-68
2022/08/06 22:22:34;;;;;;;8.75;5.03;;;;;;;;;;10214227;28;20042;-68
2022/08/06 22:27:31;;;;;;;8.73;5.80;;;;;;;;;;10225989;28;20456;-68
2022/08/06 22:32:29;;;;;;;12.65;5.70;;;;;;;;;;10216042;28;20476;-68
2022/08/06 22:37:26;;;;;;;8.23;5.28;;;;;;;;;;10214155;28;20046;-68
2022/08/06 22:42:43;;;;;;;9.80;6.07;;;;;;;;;;10218173;28;20390;-68
2022/08/06 22:47:54;;;;;;;8.93;5.43;;;;;;;;;;10221984;28;20045;-69
2022/08/06 22:53:03;;;;;;;9.43;5.43;;;;;;;;;;10222636;28;20069;-68
2022/08/06 22:58:19;;;;;;;11.15;5.57;;;;;;;;;;10226454;28;20049;-68
2022/08/06 23:03:36;;;;;;;12.65;7.03;;;;;;;;;;10208784;28;20600;-68
2022/08/06 23:08:34;;;;;;;10.05;6.55;;;;;;;;;;10220878;28;20060;-68
2022/08/06 23:13:30;;;;;;;11.27;6.60;;;;;;;;;;10221662;28;20041;-68
2022/08/06 23:18:40;;;;;;;9.98;6.30;;;;;;;;;;10214615;28;20081;-68
2022/08/06 23:23:36;;;;;;;10.85;6.15;;;;;;;;;;10224245;28;20080;-68
2022/08/06 23:28:42;;;;;;;10.27;6.35;;;;;;;;;;10217778;28;20096;-68
2022/08/06 23:33:41;;;;;;;9.43;5.63;;;;;;;;;;10227682;28;20037;-68
2022/08/06 23:38:50;;;;;;;10.13;5.55;;;;;;;;;;10210209;28;20069;-68
2022/08/06 23:43:47;;;;;;;11.70;6.35;;;;;;;;;;10218701;28;20057;-68
2022/08/06 23:48:46;;;;;;;9.27;6.13;;;;;;;;;;10226484;28;20394;-68
2022/08/06 23:53:47;;;;;;;9.48;5.97;;;;;;;;;;10218357;28;20053;-68
2022/08/06 23:59:02;;;;;;;10.05;6.05;;;;;;;;;;10213771;28;20441;-69
